Главная страница
METAR-TAF:

METAR-TAF

Аэропорты :

Киль, Германия

широта: 54-23N, долгота: 010-10E, высота над уровнем моря: 31 м

Текущие метеонаблюдения

Эта сводка был подготовлена 11 часа и 40 минут назад, в 15:20 UTC
Ветер 11 Узел от западно-северо-западный
Температура 10°C
Влажность 62%
Давление 1028 hPa
Видимость 10 км и более
небольшая облачность на высоте 3900 фута

METAR: EDHK 231520Z 29011KT 9999 FEW039 10/03 Q1028

Время: 04:00 (03:00 UTC)

Прогноз

Эта сводка был подготовлена 13 часа и 0 минут назад, в 14:00 UTC
Прогноз действительный с 23-го 15 UTC до 23-го 18 UTC
Ветер 11 Узел от западный
Видимость 10 км и более
Отдельные облака на высоте 3500 фута

TAF: EDHK 231400Z 2315/2318 28011KT 9999 SCT035

Метеонаблюдения и прогнозы для более 4000 аэропортов (сводки METAR и TAF).

Имеющиеся станции представлены на карте желтыми и красными точками.

Чтобы увидеть название станции, наведите на нее мышь.

Затем щелкните, чтобы увидеть метеонаблюдения и метеопрогнозы.

Управление картой: чтобы увеличить масштаб, щелкните зеленые кнопки с черным крестиком; чтобы уменьшить масштаб, щелкните зеленую кнопку с тире; для просмотра соседних карт щелкайте зеленые стрелки.


METAR-TAF: